sensor_id;sensor_type;location;lat;lon;timestamp;temperature;humidity
9375;DHT22;4727;51.202;6.344;2022-10-22T00:00:26;14.50;1.00
9375;DHT22;4727;51.202;6.344;2022-10-22T00:02:52;14.40;27.80
9375;DHT22;4727;51.202;6.344;2022-10-22T00:05:17;14.50;99.90
9375;DHT22;4727;51.202;6.344;2022-10-22T00:07:43;14.50;99.90
9375;DHT22;4727;51.202;6.344;2022-10-22T00:10:09;14.50;99.90
9375;DHT22;4727;51.202;6.344;2022-10-22T00:12:35;14.40;99.90
9375;DHT22;4727;51.202;6.344;2022-10-22T00:15:01;14.50;99.90
9375;DHT22;4727;51.202;6.344;2022-10-22T00:17:27;14.60;99.90
9375;DHT22;4727;51.202;6.344;2022-10-22T00:19:52;14.50;99.90
9375;DHT22;4727;51.202;6.344;2022-10-22T00:22:18;14.50;99.90
9375;DHT22;4727;51.202;6.344;2022-10-22T00:24:43;14.50;99.90
9375;DHT22;4727;51.202;6.344;2022-10-22T00:27:10;14.50;99.90
9375;DHT22;4727;51.202;6.344;2022-10-22T00:29:36;14.50;99.90
9375;DHT22;4727;51.202;6.344;2022-10-22T00:32:02;14.50;99.90
9375;DHT22;4727;51.202;6.344;2022-10-22T00:34:28;14.50;99.90
9375;DHT22;4727;51.202;6.344;2022-10-22T00:36:54;14.50;99.90
9375;DHT22;4727;51.202;6.344;2022-10-22T00:39:22;14.40;99.90
9375;DHT22;4727;51.202;6.344;2022-10-22T00:41:49;14.50;1.00
9375;DHT22;4727;51.202;6.344;2022-10-22T00:47:19;14.50;99.90
9375;DHT22;4727;51.202;6.344;2022-10-22T00:49:47;14.50;99.90
9375;DHT22;4727;51.202;6.344;2022-10-22T00:52:13;14.50;99.90
9375;DHT22;4727;51.202;6.344;2022-10-22T00:54:39;14.40;1.00
9375;DHT22;4727;51.202;6.344;2022-10-22T00:57:05;14.50;1.00
9375;DHT22;4727;51.202;6.344;2022-10-22T00:59:31;14.50;1.00
9375;DHT22;4727;51.202;6.344;2022-10-22T01:01:57;14.50;1.00
9375;DHT22;4727;51.202;6.344;2022-10-22T01:04:23;14.50;99.90
9375;DHT22;4727;51.202;6.344;2022-10-22T01:06:48;14.50;1.00
9375;DHT22;4727;51.202;6.344;2022-10-22T01:09:32;14.40;1.00
9375;DHT22;4727;51.202;6.344;2022-10-22T01:12:17;14.50;1.00
9375;DHT22;4727;51.202;6.344;2022-10-22T01:18:26;14.50;1.00
9375;DHT22;4727;51.202;6.344;2022-10-22T01:26:13;14.40;99.90
9375;DHT22;4727;51.202;6.344;2022-10-22T01:31:46;14.60;99.90
9375;DHT22;4727;51.202;6.344;2022-10-22T01:34:17;14.40;99.90
9375;DHT22;4727;51.202;6.344;2022-10-22T01:36:44;14.50;99.90
9375;DHT22;4727;51.202;6.344;2022-10-22T01:39:11;14.40;99.90
9375;DHT22;4727;51.202;6.344;2022-10-22T01:41:40;14.50;99.90
9375;DHT22;4727;51.202;6.344;2022-10-22T01:44:24;14.50;99.90
9375;DHT22;4727;51.202;6.344;2022-10-22T01:47:06;14.50;99.90
9375;DHT22;4727;51.202;6.344;2022-10-22T01:50:14;14.50;99.90
9375;DHT22;4727;51.202;6.344;2022-10-22T02:00:39;14.50;99.90
9375;DHT22;4727;51.202;6.344;2022-10-22T02:03:13;14.40;99.90
9375;DHT22;4727;51.202;6.344;2022-10-22T02:05:48;14.30;99.90
9375;DHT22;4727;51.202;6.344;2022-10-22T02:08:19;14.30;1.00
9375;DHT22;4727;51.202;6.344;2022-10-22T02:10:46;14.20;1.00
9375;DHT22;4727;51.202;6.344;2022-10-22T02:13:18;14.30;99.90
9375;DHT22;4727;51.202;6.344;2022-10-22T02:15:48;14.20;99.90
9375;DHT22;4727;51.202;6.344;2022-10-22T02:18:17;14.30;99.90
9375;DHT22;4727;51.202;6.344;2022-10-22T02:20:43;14.30;99.90
9375;DHT22;4727;51.202;6.344;2022-10-22T02:23:10;14.30;99.90
9375;DHT22;4727;51.202;6.344;2022-10-22T02:25:40;14.30;99.90
9375;DHT22;4727;51.202;6.344;2022-10-22T02:28:16;14.30;99.90
9375;DHT22;4727;51.202;6.344;2022-10-22T02:30:47;14.20;1.00
9375;DHT22;4727;51.202;6.344;2022-10-22T02:33:18;14.10;1.00
9375;DHT22;4727;51.202;6.344;2022-10-22T02:35:47;14.10;1.00
9375;DHT22;4727;51.202;6.344;2022-10-22T02:38:14;14.10;1.00
9375;DHT22;4727;51.202;6.344;2022-10-22T02:40:40;14.10;1.00
9375;DHT22;4727;51.202;6.344;2022-10-22T02:43:06;14.00;1.00
9375;DHT22;4727;51.202;6.344;2022-10-22T02:45:33;14.00;1.00
9375;DHT22;4727;51.202;6.344;2022-10-22T02:47:59;14.00;1.00
9375;DHT22;4727;51.202;6.344;2022-10-22T02:50:25;14.00;1.00
9375;DHT22;4727;51.202;6.344;2022-10-22T02:52:50;14.00;1.00
9375;DHT22;4727;51.202;6.344;2022-10-22T02:55:16;14.10;1.00
9375;DHT22;4727;51.202;6.344;2022-10-22T02:57:41;14.00;1.00
9375;DHT22;4727;51.202;6.344;2022-10-22T03:00:08;14.00;1.00
9375;DHT22;4727;51.202;6.344;2022-10-22T03:02:34;14.00;1.00
9375;DHT22;4727;51.202;6.344;2022-10-22T03:05:00;14.00;1.00
9375;DHT22;4727;51.202;6.344;2022-10-22T03:07:25;14.00;1.00
9375;DHT22;4727;51.202;6.344;2022-10-22T03:09:51;14.00;1.00
9375;DHT22;4727;51.202;6.344;2022-10-22T03:12:16;14.00;1.00
9375;DHT22;4727;51.202;6.344;2022-10-22T03:14:42;14.00;1.00
9375;DHT22;4727;51.202;6.344;2022-10-22T03:17:08;13.80;1.00
9375;DHT22;4727;51.202;6.344;2022-10-22T03:19:33;13.80;1.30
9375;DHT22;4727;51.202;6.344;2022-10-22T03:22:07;13.90;38.20
9375;DHT22;4727;51.202;6.344;2022-10-22T03:24:38;13.80;99.90
9375;DHT22;4727;51.202;6.344;2022-10-22T03:27:04;13.90;99.90
9375;DHT22;4727;51.202;6.344;2022-10-22T03:29:30;13.80;99.90
9375;DHT22;4727;51.202;6.344;2022-10-22T03:31:58;13.80;99.90
9375;DHT22;4727;51.202;6.344;2022-10-22T03:34:23;13.80;99.90
9375;DHT22;4727;51.202;6.344;2022-10-22T03:36:50;13.80;99.90
9375;DHT22;4727;51.202;6.344;2022-10-22T03:39:17;13.90;99.90
9375;DHT22;4727;51.202;6.344;2022-10-22T03:41:44;13.80;99.90
9375;DHT22;4727;51.202;6.344;2022-10-22T03:44:10;13.80;99.90
9375;DHT22;4727;51.202;6.344;2022-10-22T03:46:36;13.90;99.90
9375;DHT22;4727;51.202;6.344;2022-10-22T03:49:02;13.90;99.90
9375;DHT22;4727;51.202;6.344;2022-10-22T03:51:28;13.90;99.90
9375;DHT22;4727;51.202;6.344;2022-10-22T03:53:53;13.90;99.90
9375;DHT22;4727;51.202;6.344;2022-10-22T03:56:19;13.70;99.90
9375;DHT22;4727;51.202;6.344;2022-10-22T03:58:45;13.80;99.90
9375;DHT22;4727;51.202;6.344;2022-10-22T04:01:11;13.80;99.90
9375;DHT22;4727;51.202;6.344;2022-10-22T04:03:38;13.80;99.90
9375;DHT22;4727;51.202;6.344;2022-10-22T04:06:12;13.80;99.90
9375;DHT22;4727;51.202;6.344;2022-10-22T04:08:38;13.80;99.90
9375;DHT22;4727;51.202;6.344;2022-10-22T04:11:05;13.80;99.90
9375;DHT22;4727;51.202;6.344;2022-10-22T04:13:30;13.90;99.90
9375;DHT22;4727;51.202;6.344;2022-10-22T04:16:38;13.80;99.90
9375;DHT22;4727;51.202;6.344;2022-10-22T04:18:57;13.80;99.90
9375;DHT22;4727;51.202;6.344;2022-10-22T04:21:23;13.80;99.90
9375;DHT22;4727;51.202;6.344;2022-10-22T04:23:51;13.70;99.90
9375;DHT22;4727;51.202;6.344;2022-10-22T04:26:18;13.80;99.90
9375;DHT22;4727;51.202;6.344;2022-10-22T04:28:45;13.70;99.90
9375;DHT22;4727;51.202;6.344;2022-10-22T04:31:13;13.80;99.90
9375;DHT22;4727;51.202;6.344;2022-10-22T04:33:40;13.80;99.90
9375;DHT22;4727;51.202;6.344;2022-10-22T04:36:10;13.80;99.90
9375;DHT22;4727;51.202;6.344;2022-10-22T04:38:36;13.80;99.90
9375;DHT22;4727;51.202;6.344;2022-10-22T04:41:19;13.80;99.90
9375;DHT22;4727;51.202;6.344;2022-10-22T04:43:45;13.70;99.90
9375;DHT22;4727;51.202;6.344;2022-10-22T04:46:15;13.60;99.90
9375;DHT22;4727;51.202;6.344;2022-10-22T04:48:42;13.70;99.90
9375;DHT22;4727;51.202;6.344;2022-10-22T04:51:11;13.70;99.90
9375;DHT22;4727;51.202;6.344;2022-10-22T04:53:36;13.70;99.90
9375;DHT22;4727;51.202;6.344;2022-10-22T04:56:23;13.70;99.90
9375;DHT22;4727;51.202;6.344;2022-10-22T04:58:57;13.70;99.90
9375;DHT22;4727;51.202;6.344;2022-10-22T05:01:28;13.70;99.90
9375;DHT22;4727;51.202;6.344;2022-10-22T05:03:56;13.60;99.90
9375;DHT22;4727;51.202;6.344;2022-10-22T05:06:22;13.70;99.90
9375;DHT22;4727;51.202;6.344;2022-10-22T05:09:02;13.60;99.90
9375;DHT22;4727;51.202;6.344;2022-10-22T05:11:30;13.70;99.90
9375;DHT22;4727;51.202;6.344;2022-10-22T05:13:59;13.60;99.90
9375;DHT22;4727;51.202;6.344;2022-10-22T05:16:26;13.60;99.90
9375;DHT22;4727;51.202;6.344;2022-10-22T05:18:51;13.60;99.90
9375;DHT22;4727;51.202;6.344;2022-10-22T05:21:19;13.60;99.90
9375;DHT22;4727;51.202;6.344;2022-10-22T05:23:46;13.60;99.90
9375;DHT22;4727;51.202;6.344;2022-10-22T05:26:14;13.70;99.90
9375;DHT22;4727;51.202;6.344;2022-10-22T05:28:40;13.60;99.90
9375;DHT22;4727;51.202;6.344;2022-10-22T05:31:07;13.60;99.90
9375;DHT22;4727;51.202;6.344;2022-10-22T05:33:34;13.50;99.90
9375;DHT22;4727;51.202;6.344;2022-10-22T05:36:00;13.50;99.90
9375;DHT22;4727;51.202;6.344;2022-10-22T05:38:27;13.50;99.90
9375;DHT22;4727;51.202;6.344;2022-10-22T05:41:04;13.50;99.90
9375;DHT22;4727;51.202;6.344;2022-10-22T05:43:30;13.50;99.90
9375;DHT22;4727;51.202;6.344;2022-10-22T05:45:59;13.50;99.90
9375;DHT22;4727;51.202;6.344;2022-10-22T05:48:25;13.50;99.90
9375;DHT22;4727;51.202;6.344;2022-10-22T05:50:50;13.50;99.90
9375;DHT22;4727;51.202;6.344;2022-10-22T05:53:19;13.40;99.90
9375;DHT22;4727;51.202;6.344;2022-10-22T05:55:45;13.40;99.90
9375;DHT22;4727;51.202;6.344;2022-10-22T05:58:12;13.50;99.90
9375;DHT22;4727;51.202;6.344;2022-10-22T06:00:37;13.50;99.90
9375;DHT22;4727;51.202;6.344;2022-10-22T06:03:03;13.50;99.90
9375;DHT22;4727;51.202;6.344;2022-10-22T06:05:29;13.60;99.90
9375;DHT22;4727;51.202;6.344;2022-10-22T06:07:55;13.40;99.90
9375;DHT22;4727;51.202;6.344;2022-10-22T06:10:22;13.70;99.90
9375;DHT22;4727;51.202;6.344;2022-10-22T06:12:48;13.50;99.90
9375;DHT22;4727;51.202;6.344;2022-10-22T06:15:16;13.60;99.90
9375;DHT22;4727;51.202;6.344;2022-10-22T06:17:43;13.50;99.90
9375;DHT22;4727;51.202;6.344;2022-10-22T06:20:10;13.60;99.90
9375;DHT22;4727;51.202;6.344;2022-10-22T06:22:36;13.60;99.90
9375;DHT22;4727;51.202;6.344;2022-10-22T06:25:02;13.60;99.90
9375;DHT22;4727;51.202;6.344;2022-10-22T06:27:28;13.60;99.90
9375;DHT22;4727;51.202;6.344;2022-10-22T06:29:53;13.60;97.50
9375;DHT22;4727;51.202;6.344;2022-10-22T06:32:19;13.60;70.50
9375;DHT22;4727;51.202;6.344;2022-10-22T06:34:45;13.60;82.80
9375;DHT22;4727;51.202;6.344;2022-10-22T06:37:12;13.60;78.60
9375;DHT22;4727;51.202;6.344;2022-10-22T06:39:39;13.60;44.20
9375;DHT22;4727;51.202;6.344;2022-10-22T06:42:05;13.60;62.90
9375;DHT22;4727;51.202;6.344;2022-10-22T06:44:30;13.70;17.50
9375;DHT22;4727;51.202;6.344;2022-10-22T06:46:56;13.70;1.00
9375;DHT22;4727;51.202;6.344;2022-10-22T06:49:21;13.70;1.00
9375;DHT22;4727;51.202;6.344;2022-10-22T06:51:51;13.80;1.00
9375;DHT22;4727;51.202;6.344;2022-10-22T06:54:17;13.80;1.00
9375;DHT22;4727;51.202;6.344;2022-10-22T06:56:43;13.80;1.00
9375;DHT22;4727;51.202;6.344;2022-10-22T06:59:08;13.80;1.00
9375;DHT22;4727;51.202;6.344;2022-10-22T07:01:35;13.90;1.00
9375;DHT22;4727;51.202;6.344;2022-10-22T07:04:01;13.90;1.00
9375;DHT22;4727;51.202;6.344;2022-10-22T07:06:28;13.90;1.00
9375;DHT22;4727;51.202;6.344;2022-10-22T07:08:55;13.80;1.00
9375;DHT22;4727;51.202;6.344;2022-10-22T07:11:27;13.90;1.00
9375;DHT22;4727;51.202;6.344;2022-10-22T07:13:55;13.90;1.00
9375;DHT22;4727;51.202;6.344;2022-10-22T07:16:21;13.90;1.00
9375;DHT22;4727;51.202;6.344;2022-10-22T07:18:47;14.00;1.00
9375;DHT22;4727;51.202;6.344;2022-10-22T07:21:14;14.00;1.00
9375;DHT22;4727;51.202;6.344;2022-10-22T07:23:40;14.00;1.00
9375;DHT22;4727;51.202;6.344;2022-10-22T07:26:07;14.00;1.00
9375;DHT22;4727;51.202;6.344;2022-10-22T07:28:34;14.00;99.90
9375;DHT22;4727;51.202;6.344;2022-10-22T07:31:01;14.00;1.00
9375;DHT22;4727;51.202;6.344;2022-10-22T07:33:27;14.20;1.00
9375;DHT22;4727;51.202;6.344;2022-10-22T07:36:00;14.20;1.00
9375;DHT22;4727;51.202;6.344;2022-10-22T07:38:27;14.10;99.90
9375;DHT22;4727;51.202;6.344;2022-10-22T07:40:52;14.20;99.90
9375;DHT22;4727;51.202;6.344;2022-10-22T07:43:18;14.30;99.90
9375;DHT22;4727;51.202;6.344;2022-10-22T07:45:44;14.40;86.10
9375;DHT22;4727;51.202;6.344;2022-10-22T07:48:10;14.40;9.40
9375;DHT22;4727;51.202;6.344;2022-10-22T07:50:36;14.50;1.00
9375;DHT22;4727;51.202;6.344;2022-10-22T07:53:01;14.60;1.00
9375;DHT22;4727;51.202;6.344;2022-10-22T07:55:27;14.50;1.00
9375;DHT22;4727;51.202;6.344;2022-10-22T07:57:52;14.70;99.90
9375;DHT22;4727;51.202;6.344;2022-10-22T08:00:18;14.80;99.90
9375;DHT22;4727;51.202;6.344;2022-10-22T08:02:44;14.80;99.90
9375;DHT22;4727;51.202;6.344;2022-10-22T08:05:10;14.80;99.90
9375;DHT22;4727;51.202;6.344;2022-10-22T08:07:38;14.80;99.90
9375;DHT22;4727;51.202;6.344;2022-10-22T08:10:04;15.00;99.90
9375;DHT22;4727;51.202;6.344;2022-10-22T08:12:29;15.00;1.00
9375;DHT22;4727;51.202;6.344;2022-10-22T08:14:55;15.00;1.00
9375;DHT22;4727;51.202;6.344;2022-10-22T08:17:20;15.00;1.00
9375;DHT22;4727;51.202;6.344;2022-10-22T08:19:46;15.10;1.00
9375;DHT22;4727;51.202;6.344;2022-10-22T08:22:12;15.20;1.00
9375;DHT22;4727;51.202;6.344;2022-10-22T08:24:37;15.20;1.00
9375;DHT22;4727;51.202;6.344;2022-10-22T08:27:03;15.20;1.00
9375;DHT22;4727;51.202;6.344;2022-10-22T08:29:28;15.20;99.90
9375;DHT22;4727;51.202;6.344;2022-10-22T08:31:54;15.30;99.90
9375;DHT22;4727;51.202;6.344;2022-10-22T08:34:19;15.30;99.90
9375;DHT22;4727;51.202;6.344;2022-10-22T08:36:46;15.30;99.90
9375;DHT22;4727;51.202;6.344;2022-10-22T08:39:11;15.40;95.00
9375;DHT22;4727;51.202;6.344;2022-10-22T08:46:57;15.50;99.90
9375;DHT22;4727;51.202;6.344;2022-10-22T08:49:32;15.50;99.90
9375;DHT22;4727;51.202;6.344;2022-10-22T08:51:59;15.60;99.90
9375;DHT22;4727;51.202;6.344;2022-10-22T08:59:35;15.70;99.90
9375;DHT22;4727;51.202;6.344;2022-10-22T09:02:07;15.70;99.90
9375;DHT22;4727;51.202;6.344;2022-10-22T09:04:45;15.70;99.90
9375;DHT22;4727;51.202;6.344;2022-10-22T09:07:13;15.70;1.00
9375;DHT22;4727;51.202;6.344;2022-10-22T09:09:41;15.80;99.90
9375;DHT22;4727;51.202;6.344;2022-10-22T09:12:14;15.80;99.90
9375;DHT22;4727;51.202;6.344;2022-10-22T09:14:40;15.70;1.00
9375;DHT22;4727;51.202;6.344;2022-10-22T09:17:19;15.80;1.00
9375;DHT22;4727;51.202;6.344;2022-10-22T09:20:14;15.90;1.00
9375;DHT22;4727;51.202;6.344;2022-10-22T09:25:43;15.90;1.00
9375;DHT22;4727;51.202;6.344;2022-10-22T09:28:09;16.00;99.90
9375;DHT22;4727;51.202;6.344;2022-10-22T09:30:37;16.00;1.00
9375;DHT22;4727;51.202;6.344;2022-10-22T09:33:25;16.10;99.90
9375;DHT22;4727;51.202;6.344;2022-10-22T09:35:57;16.10;62.90
9375;DHT22;4727;51.202;6.344;2022-10-22T09:38:31;16.10;99.90
9375;DHT22;4727;51.202;6.344;2022-10-22T09:41:00;16.20;99.90
9375;DHT22;4727;51.202;6.344;2022-10-22T09:43:28;16.30;1.00
9375;DHT22;4727;51.202;6.344;2022-10-22T09:45:58;16.40;1.00
9375;DHT22;4727;51.202;6.344;2022-10-22T09:48:28;16.30;1.00
9375;DHT22;4727;51.202;6.344;2022-10-22T09:53:35;16.50;99.90
9375;DHT22;4727;51.202;6.344;2022-10-22T09:56:09;16.60;99.90
9375;DHT22;4727;51.202;6.344;2022-10-22T09:58:44;16.60;51.20
9375;DHT22;4727;51.202;6.344;2022-10-22T10:01:21;16.60;1.00
9375;DHT22;4727;51.202;6.344;2022-10-22T10:03:48;16.60;27.10
9375;DHT22;4727;51.202;6.344;2022-10-22T10:06:17;16.60;43.50
9375;DHT22;4727;51.202;6.344;2022-10-22T10:08:44;16.60;1.00
9375;DHT22;4727;51.202;6.344;2022-10-22T10:19:09;16.60;1.00
9375;DHT22;4727;51.202;6.344;2022-10-22T10:21:55;16.60;61.10
9375;DHT22;4727;51.202;6.344;2022-10-22T10:24:41;16.60;1.00
9375;DHT22;4727;51.202;6.344;2022-10-22T10:27:10;16.60;1.00
9375;DHT22;4727;51.202;6.344;2022-10-22T10:32:59;16.80;99.90
9375;DHT22;4727;51.202;6.344;2022-10-22T10:35:29;16.70;1.00
9375;DHT22;4727;51.202;6.344;2022-10-22T10:40:58;16.70;1.00
9375;DHT22;4727;51.202;6.344;2022-10-22T10:49:02;16.80;99.90
9375;DHT22;4727;51.202;6.344;2022-10-22T10:57:12;16.80;99.90
9375;DHT22;4727;51.202;6.344;2022-10-22T11:08:23;16.80;99.90
9375;DHT22;4727;51.202;6.344;2022-10-22T11:11:02;16.80;99.90
9375;DHT22;4727;51.202;6.344;2022-10-22T11:13:51;16.90;22.90
9375;DHT22;4727;51.202;6.344;2022-10-22T11:19:29;16.80;99.90
9375;DHT22;4727;51.202;6.344;2022-10-22T11:22:14;16.80;1.00
9375;DHT22;4727;51.202;6.344;2022-10-22T11:27:58;16.90;99.00
9375;DHT22;4727;51.202;6.344;2022-10-22T11:30:31;16.90;99.90
9375;DHT22;4727;51.202;6.344;2022-10-22T11:33:06;17.00;1.00
9375;DHT22;4727;51.202;6.344;2022-10-22T11:35:42;16.90;1.00
9375;DHT22;4727;51.202;6.344;2022-10-22T11:38:13;16.90;1.00
9375;DHT22;4727;51.202;6.344;2022-10-22T11:41:32;17.00;1.00
9375;DHT22;4727;51.202;6.344;2022-10-22T11:44:07;17.00;99.90
9375;DHT22;4727;51.202;6.344;2022-10-22T11:46:56;16.90;1.00
9375;DHT22;4727;51.202;6.344;2022-10-22T11:49:43;16.90;1.00
9375;DHT22;4727;51.202;6.344;2022-10-22T11:54:56;16.90;99.90
9375;DHT22;4727;51.202;6.344;2022-10-22T11:57:28;17.00;99.90
9375;DHT22;4727;51.202;6.344;2022-10-22T11:59:58;17.00;1.00
9375;DHT22;4727;51.202;6.344;2022-10-22T12:05:17;17.00;99.90
9375;DHT22;4727;51.202;6.344;2022-10-22T12:07:56;17.10;1.00
9375;DHT22;4727;51.202;6.344;2022-10-22T12:10:29;17.00;1.00
9375;DHT22;4727;51.202;6.344;2022-10-22T12:13:11;17.00;1.00
9375;DHT22;4727;51.202;6.344;2022-10-22T12:15:46;17.20;1.00
9375;DHT22;4727;51.202;6.344;2022-10-22T12:18:13;17.10;1.00
9375;DHT22;4727;51.202;6.344;2022-10-22T12:20:39;17.30;1.00
9375;DHT22;4727;51.202;6.344;2022-10-22T12:23:06;17.30;1.00
9375;DHT22;4727;51.202;6.344;2022-10-22T12:25:33;17.40;99.90
9375;DHT22;4727;51.202;6.344;2022-10-22T12:28:00;17.40;99.90
9375;DHT22;4727;51.202;6.344;2022-10-22T12:30:31;17.50;99.90
9375;DHT22;4727;51.202;6.344;2022-10-22T12:33:01;17.60;99.90
9375;DHT22;4727;51.202;6.344;2022-10-22T12:35:33;17.60;99.90
9375;DHT22;4727;51.202;6.344;2022-10-22T12:38:02;17.70;99.90
9375;DHT22;4727;51.202;6.344;2022-10-22T12:40:30;17.70;1.00
9375;DHT22;4727;51.202;6.344;2022-10-22T12:43:06;17.80;99.90
9375;DHT22;4727;51.202;6.344;2022-10-22T12:45:35;17.80;1.00
9375;DHT22;4727;51.202;6.344;2022-10-22T12:48:03;17.80;1.00
9375;DHT22;4727;51.202;6.344;2022-10-22T12:50:35;17.90;1.00
9375;DHT22;4727;51.202;6.344;2022-10-22T12:53:15;17.90;99.90
9375;DHT22;4727;51.202;6.344;2022-10-22T12:55:48;18.00;99.90
9375;DHT22;4727;51.202;6.344;2022-10-22T12:58:18;18.00;1.00
9375;DHT22;4727;51.202;6.344;2022-10-22T13:00:45;18.10;1.00
9375;DHT22;4727;51.202;6.344;2022-10-22T13:03:25;18.20;99.90
9375;DHT22;4727;51.202;6.344;2022-10-22T13:05:51;18.40;95.40
9375;DHT22;4727;51.202;6.344;2022-10-22T13:08:20;18.40;99.90
9375;DHT22;4727;51.202;6.344;2022-10-22T13:10:51;18.50;99.90
9375;DHT22;4727;51.202;6.344;2022-10-22T13:13:59;18.40;1.00
9375;DHT22;4727;51.202;6.344;2022-10-22T13:16:25;18.40;99.90
9375;DHT22;4727;51.202;6.344;2022-10-22T13:18:53;18.20;99.90
9375;DHT22;4727;51.202;6.344;2022-10-22T13:23:58;18.00;99.90
9375;DHT22;4727;51.202;6.344;2022-10-22T13:26:31;17.90;99.90
9375;DHT22;4727;51.202;6.344;2022-10-22T13:28:57;17.90;99.90
9375;DHT22;4727;51.202;6.344;2022-10-22T13:31:28;17.80;1.00
9375;DHT22;4727;51.202;6.344;2022-10-22T13:33:59;17.80;1.00
9375;DHT22;4727;51.202;6.344;2022-10-22T13:36:26;17.80;1.00
9375;DHT22;4727;51.202;6.344;2022-10-22T13:38:52;17.80;1.00
9375;DHT22;4727;51.202;6.344;2022-10-22T13:43:44;17.80;1.00
9375;DHT22;4727;51.202;6.344;2022-10-22T13:46:10;17.80;1.00
9375;DHT22;4727;51.202;6.344;2022-10-22T13:48:36;17.60;1.00
9375;DHT22;4727;51.202;6.344;2022-10-22T13:51:01;17.70;1.00
9375;DHT22;4727;51.202;6.344;2022-10-22T13:53:29;17.80;1.00
9375;DHT22;4727;51.202;6.344;2022-10-22T13:55:55;17.80;1.00
9375;DHT22;4727;51.202;6.344;2022-10-22T13:58:22;17.80;1.00
9375;DHT22;4727;51.202;6.344;2022-10-22T14:00:59;17.80;1.00
9375;DHT22;4727;51.202;6.344;2022-10-22T14:03:32;17.90;1.00
9375;DHT22;4727;51.202;6.344;2022-10-22T14:05:59;18.20;99.90
9375;DHT22;4727;51.202;6.344;2022-10-22T14:08:26;18.50;99.90
9375;DHT22;4727;51.202;6.344;2022-10-22T14:10:52;18.50;1.00
9375;DHT22;4727;51.202;6.344;2022-10-22T14:13:19;18.70;99.90
9375;DHT22;4727;51.202;6.344;2022-10-22T14:15:48;18.70;99.90
9375;DHT22;4727;51.202;6.344;2022-10-22T14:18:25;18.80;1.00
9375;DHT22;4727;51.202;6.344;2022-10-22T14:20:55;18.90;1.00
9375;DHT22;4727;51.202;6.344;2022-10-22T14:23:23;18.80;1.00
9375;DHT22;4727;51.202;6.344;2022-10-22T14:25:49;18.70;1.00
9375;DHT22;4727;51.202;6.344;2022-10-22T14:28:17;18.80;1.00
9375;DHT22;4727;51.202;6.344;2022-10-22T14:30:43;18.90;1.00
9375;DHT22;4727;51.202;6.344;2022-10-22T14:35:41;19.20;1.00
9375;DHT22;4727;51.202;6.344;2022-10-22T14:38:07;19.20;1.00
9375;DHT22;4727;51.202;6.344;2022-10-22T14:40:32;19.20;1.00
9375;DHT22;4727;51.202;6.344;2022-10-22T14:42:58;19.30;1.00
9375;DHT22;4727;51.202;6.344;2022-10-22T14:45:25;19.20;1.00
9375;DHT22;4727;51.202;6.344;2022-10-22T14:47:52;19.20;99.90
9375;DHT22;4727;51.202;6.344;2022-10-22T14:50:22;19.20;1.00
9375;DHT22;4727;51.202;6.344;2022-10-22T14:52:48;19.30;1.00
9375;DHT22;4727;51.202;6.344;2022-10-22T14:55:16;19.20;1.00
9375;DHT22;4727;51.202;6.344;2022-10-22T14:57:42;19.20;1.00
9375;DHT22;4727;51.202;6.344;2022-10-22T15:00:14;19.30;1.00
9375;DHT22;4727;51.202;6.344;2022-10-22T15:02:40;19.30;1.00
9375;DHT22;4727;51.202;6.344;2022-10-22T15:05:06;19.40;99.90
9375;DHT22;4727;51.202;6.344;2022-10-22T15:07:32;19.30;99.90
9375;DHT22;4727;51.202;6.344;2022-10-22T15:09:57;19.20;99.90
9375;DHT22;4727;51.202;6.344;2022-10-22T15:12:23;19.30;1.00
9375;DHT22;4727;51.202;6.344;2022-10-22T15:14:48;19.30;1.00
9375;DHT22;4727;51.202;6.344;2022-10-22T15:17:15;19.30;1.00
9375;DHT22;4727;51.202;6.344;2022-10-22T15:19:42;19.20;1.00
9375;DHT22;4727;51.202;6.344;2022-10-22T15:22:08;19.20;1.00
9375;DHT22;4727;51.202;6.344;2022-10-22T15:24:34;19.10;1.00
9375;DHT22;4727;51.202;6.344;2022-10-22T15:27:00;19.20;1.00
9375;DHT22;4727;51.202;6.344;2022-10-22T15:29:28;19.10;1.00
9375;DHT22;4727;51.202;6.344;2022-10-22T15:31:55;19.00;51.50
9375;DHT22;4727;51.202;6.344;2022-10-22T15:34:27;18.80;1.00
9375;DHT22;4727;51.202;6.344;2022-10-22T15:36:55;18.70;99.90
9375;DHT22;4727;51.202;6.344;2022-10-22T15:39:21;18.80;99.90
9375;DHT22;4727;51.202;6.344;2022-10-22T15:41:48;18.60;99.90
9375;DHT22;4727;51.202;6.344;2022-10-22T15:44:16;18.60;99.90
9375;DHT22;4727;51.202;6.344;2022-10-22T15:46:41;18.50;99.90
9375;DHT22;4727;51.202;6.344;2022-10-22T15:49:07;18.50;99.90
9375;DHT22;4727;51.202;6.344;2022-10-22T15:51:33;18.50;99.90
9375;DHT22;4727;51.202;6.344;2022-10-22T15:53:58;18.40;1.00
9375;DHT22;4727;51.202;6.344;2022-10-22T15:56:26;18.40;1.00
9375;DHT22;4727;51.202;6.344;2022-10-22T15:59:02;18.30;1.00
9375;DHT22;4727;51.202;6.344;2022-10-22T16:01:32;18.20;1.00
9375;DHT22;4727;51.202;6.344;2022-10-22T16:03:58;18.10;1.00
9375;DHT22;4727;51.202;6.344;2022-10-22T16:06:33;18.00;10.60
9375;DHT22;4727;51.202;6.344;2022-10-22T16:09:00;18.00;99.90
9375;DHT22;4727;51.202;6.344;2022-10-22T16:11:27;18.00;99.90
9375;DHT22;4727;51.202;6.344;2022-10-22T16:13:55;18.10;99.90
9375;DHT22;4727;51.202;6.344;2022-10-22T16:16:22;17.90;1.00
9375;DHT22;4727;51.202;6.344;2022-10-22T16:18:49;17.90;1.00
9375;DHT22;4727;51.202;6.344;2022-10-22T16:21:15;17.80;1.00
9375;DHT22;4727;51.202;6.344;2022-10-22T16:23:41;17.70;1.00
9375;DHT22;4727;51.202;6.344;2022-10-22T16:26:07;17.60;1.00
9375;DHT22;4727;51.202;6.344;2022-10-22T16:28:32;17.50;99.90
9375;DHT22;4727;51.202;6.344;2022-10-22T16:31:03;17.50;99.90
9375;DHT22;4727;51.202;6.344;2022-10-22T16:33:29;17.40;99.90
9375;DHT22;4727;51.202;6.344;2022-10-22T16:35:54;17.40;99.90
9375;DHT22;4727;51.202;6.344;2022-10-22T16:38:20;17.20;99.90
9375;DHT22;4727;51.202;6.344;2022-10-22T16:40:45;17.40;99.90
9375;DHT22;4727;51.202;6.344;2022-10-22T16:43:11;17.30;99.90
9375;DHT22;4727;51.202;6.344;2022-10-22T16:45:37;17.30;99.90
9375;DHT22;4727;51.202;6.344;2022-10-22T16:48:02;17.20;99.90
9375;DHT22;4727;51.202;6.344;2022-10-22T16:50:28;17.20;1.00
9375;DHT22;4727;51.202;6.344;2022-10-22T16:52:53;17.30;1.00
9375;DHT22;4727;51.202;6.344;2022-10-22T16:55:19;17.10;1.00
9375;DHT22;4727;51.202;6.344;2022-10-22T16:57:54;17.00;1.00
9375;DHT22;4727;51.202;6.344;2022-10-22T17:00:20;17.10;1.00
9375;DHT22;4727;51.202;6.344;2022-10-22T17:02:50;17.00;15.00
9375;DHT22;4727;51.202;6.344;2022-10-22T17:05:17;16.90;99.90
9375;DHT22;4727;51.202;6.344;2022-10-22T17:07:42;16.70;99.90
9375;DHT22;4727;51.202;6.344;2022-10-22T17:10:08;16.80;99.90
9375;DHT22;4727;51.202;6.344;2022-10-22T17:12:34;16.70;99.90
9375;DHT22;4727;51.202;6.344;2022-10-22T17:15:04;16.80;99.90
9375;DHT22;4727;51.202;6.344;2022-10-22T17:17:31;16.60;99.90
9375;DHT22;4727;51.202;6.344;2022-10-22T17:19:56;16.60;99.90
9375;DHT22;4727;51.202;6.344;2022-10-22T17:22:22;16.60;99.90
9375;DHT22;4727;51.202;6.344;2022-10-22T17:25:14;16.60;99.90
9375;DHT22;4727;51.202;6.344;2022-10-22T17:27:41;16.60;99.90
9375;DHT22;4727;51.202;6.344;2022-10-22T17:30:07;16.40;99.90
9375;DHT22;4727;51.202;6.344;2022-10-22T17:32:37;16.40;1.00
9375;DHT22;4727;51.202;6.344;2022-10-22T17:35:04;16.40;99.90
9375;DHT22;4727;51.202;6.344;2022-10-22T17:37:30;16.40;99.90
9375;DHT22;4727;51.202;6.344;2022-10-22T17:39:56;16.50;99.90
9375;DHT22;4727;51.202;6.344;2022-10-22T17:42:22;16.40;99.90
9375;DHT22;4727;51.202;6.344;2022-10-22T17:44:47;16.20;1.00
9375;DHT22;4727;51.202;6.344;2022-10-22T17:47:13;16.30;1.00
9375;DHT22;4727;51.202;6.344;2022-10-22T17:49:39;16.20;1.00